sensor_id;sensor_type;location;lat;lon;timestamp;temperature;humidity
22065;DHT22;11197;53.110;8.468;2022-11-23T00:01:22;5.90;99.90
22065;DHT22;11197;53.110;8.468;2022-11-23T00:03:49;6.00;99.90
22065;DHT22;11197;53.110;8.468;2022-11-23T00:06:16;6.00;99.90
22065;DHT22;11197;53.110;8.468;2022-11-23T00:08:43;6.00;99.90
22065;DHT22;11197;53.110;8.468;2022-11-23T00:11:09;6.00;99.90
22065;DHT22;11197;53.110;8.468;2022-11-23T00:13:35;6.00;99.90
22065;DHT22;11197;53.110;8.468;2022-11-23T00:16:12;6.00;99.90
22065;DHT22;11197;53.110;8.468;2022-11-23T00:18:38;6.00;99.90
22065;DHT22;11197;53.110;8.468;2022-11-23T00:21:08;6.00;99.90
22065;DHT22;11197;53.110;8.468;2022-11-23T00:23:35;6.00;99.90
22065;DHT22;11197;53.110;8.468;2022-11-23T00:26:02;6.00;99.90
22065;DHT22;11197;53.110;8.468;2022-11-23T00:28:28;6.00;99.90
22065;DHT22;11197;53.110;8.468;2022-11-23T00:30:54;6.00;99.90
22065;DHT22;11197;53.110;8.468;2022-11-23T00:33:20;6.00;99.90
22065;DHT22;11197;53.110;8.468;2022-11-23T00:35:46;6.00;99.90
22065;DHT22;11197;53.110;8.468;2022-11-23T00:38:12;6.00;99.90
22065;DHT22;11197;53.110;8.468;2022-11-23T00:40:38;6.00;99.90
22065;DHT22;11197;53.110;8.468;2022-11-23T00:43:03;6.00;99.90
22065;DHT22;11197;53.110;8.468;2022-11-23T00:45:30;6.00;99.90
22065;DHT22;11197;53.110;8.468;2022-11-23T00:47:55;6.00;99.90
22065;DHT22;11197;53.110;8.468;2022-11-23T00:50:21;6.00;99.90
22065;DHT22;11197;53.110;8.468;2022-11-23T00:52:49;6.00;99.90
22065;DHT22;11197;53.110;8.468;2022-11-23T00:55:15;6.00;99.90
22065;DHT22;11197;53.110;8.468;2022-11-23T00:57:41;6.00;99.90
22065;DHT22;11197;53.110;8.468;2022-11-23T01:00:08;6.00;99.90
22065;DHT22;11197;53.110;8.468;2022-11-23T01:02:34;6.00;99.90
22065;DHT22;11197;53.110;8.468;2022-11-23T01:05:01;6.00;99.90
22065;DHT22;11197;53.110;8.468;2022-11-23T01:07:28;6.00;99.90
22065;DHT22;11197;53.110;8.468;2022-11-23T01:09:57;6.10;99.90
22065;DHT22;11197;53.110;8.468;2022-11-23T01:12:22;6.00;99.90
22065;DHT22;11197;53.110;8.468;2022-11-23T01:14:48;6.00;99.90
22065;DHT22;11197;53.110;8.468;2022-11-23T01:17:14;6.10;99.90
22065;DHT22;11197;53.110;8.468;2022-11-23T01:19:40;6.10;99.90
22065;DHT22;11197;53.110;8.468;2022-11-23T01:22:05;6.10;99.90
22065;DHT22;11197;53.110;8.468;2022-11-23T01:24:31;6.10;99.90
22065;DHT22;11197;53.110;8.468;2022-11-23T01:26:59;6.10;99.90
22065;DHT22;11197;53.110;8.468;2022-11-23T01:29:25;6.10;99.90
22065;DHT22;11197;53.110;8.468;2022-11-23T01:31:51;6.10;99.90
22065;DHT22;11197;53.110;8.468;2022-11-23T01:34:17;6.10;99.90
22065;DHT22;11197;53.110;8.468;2022-11-23T01:36:44;6.10;99.90
22065;DHT22;11197;53.110;8.468;2022-11-23T01:39:10;6.10;99.90
22065;DHT22;11197;53.110;8.468;2022-11-23T01:41:41;6.10;99.90
22065;DHT22;11197;53.110;8.468;2022-11-23T01:46:54;6.20;99.90
22065;DHT22;11197;53.110;8.468;2022-11-23T01:49:21;6.10;99.90
22065;DHT22;11197;53.110;8.468;2022-11-23T01:51:51;6.20;99.90
22065;DHT22;11197;53.110;8.468;2022-11-23T01:54:24;6.20;99.90
22065;DHT22;11197;53.110;8.468;2022-11-23T01:56:58;6.20;99.90
22065;DHT22;11197;53.110;8.468;2022-11-23T01:59:26;6.20;99.90
22065;DHT22;11197;53.110;8.468;2022-11-23T02:01:53;6.20;99.90
22065;DHT22;11197;53.110;8.468;2022-11-23T02:04:22;6.20;99.90
22065;DHT22;11197;53.110;8.468;2022-11-23T02:06:49;6.20;99.90
22065;DHT22;11197;53.110;8.468;2022-11-23T02:09:16;6.20;99.90
22065;DHT22;11197;53.110;8.468;2022-11-23T02:11:43;6.20;99.90
22065;DHT22;11197;53.110;8.468;2022-11-23T02:14:12;6.20;99.90
22065;DHT22;11197;53.110;8.468;2022-11-23T02:16:39;6.20;99.90
22065;DHT22;11197;53.110;8.468;2022-11-23T02:19:18;6.20;99.90
22065;DHT22;11197;53.110;8.468;2022-11-23T02:21:46;6.20;99.90
22065;DHT22;11197;53.110;8.468;2022-11-23T02:24:34;6.20;99.90
22065;DHT22;11197;53.110;8.468;2022-11-23T02:27:02;6.20;99.90
22065;DHT22;11197;53.110;8.468;2022-11-23T02:29:32;6.20;99.90
22065;DHT22;11197;53.110;8.468;2022-11-23T02:31:59;6.20;99.90
22065;DHT22;11197;53.110;8.468;2022-11-23T02:34:25;6.20;99.90
22065;DHT22;11197;53.110;8.468;2022-11-23T02:36:54;6.20;99.90
22065;DHT22;11197;53.110;8.468;2022-11-23T02:41:58;6.20;99.90
22065;DHT22;11197;53.110;8.468;2022-11-23T02:47:09;6.30;99.90
22065;DHT22;11197;53.110;8.468;2022-11-23T02:49:39;6.30;99.90
22065;DHT22;11197;53.110;8.468;2022-11-23T02:52:06;6.40;99.90
22065;DHT22;11197;53.110;8.468;2022-11-23T02:54:32;6.40;99.90
22065;DHT22;11197;53.110;8.468;2022-11-23T02:56:57;6.30;99.90
22065;DHT22;11197;53.110;8.468;2022-11-23T02:59:23;6.30;99.90
22065;DHT22;11197;53.110;8.468;2022-11-23T03:01:51;6.40;99.90
22065;DHT22;11197;53.110;8.468;2022-11-23T03:04:20;6.40;99.90
22065;DHT22;11197;53.110;8.468;2022-11-23T03:06:46;6.40;99.90
22065;DHT22;11197;53.110;8.468;2022-11-23T03:09:12;6.40;99.90
22065;DHT22;11197;53.110;8.468;2022-11-23T03:11:38;6.40;99.90
22065;DHT22;11197;53.110;8.468;2022-11-23T03:14:04;6.40;99.90
22065;DHT22;11197;53.110;8.468;2022-11-23T03:16:37;6.40;99.90
22065;DHT22;11197;53.110;8.468;2022-11-23T03:19:03;6.50;99.90
22065;DHT22;11197;53.110;8.468;2022-11-23T03:21:30;6.50;99.90
22065;DHT22;11197;53.110;8.468;2022-11-23T03:24:01;6.50;99.90
22065;DHT22;11197;53.110;8.468;2022-11-23T03:26:27;6.50;99.90
22065;DHT22;11197;53.110;8.468;2022-11-23T03:29:05;6.50;99.90
22065;DHT22;11197;53.110;8.468;2022-11-23T03:31:31;6.60;99.90
22065;DHT22;11197;53.110;8.468;2022-11-23T03:33:58;6.60;99.90
22065;DHT22;11197;53.110;8.468;2022-11-23T03:36:25;6.60;99.90
22065;DHT22;11197;53.110;8.468;2022-11-23T03:38:51;6.60;99.90
22065;DHT22;11197;53.110;8.468;2022-11-23T03:41:31;6.60;99.90
22065;DHT22;11197;53.110;8.468;2022-11-23T03:43:58;6.60;99.90
22065;DHT22;11197;53.110;8.468;2022-11-23T03:46:24;6.60;99.90
22065;DHT22;11197;53.110;8.468;2022-11-23T03:48:50;6.60;99.90
22065;DHT22;11197;53.110;8.468;2022-11-23T03:51:16;6.60;99.90
22065;DHT22;11197;53.110;8.468;2022-11-23T03:53:42;6.60;99.90
22065;DHT22;11197;53.110;8.468;2022-11-23T03:56:08;6.60;99.90
22065;DHT22;11197;53.110;8.468;2022-11-23T03:58:39;6.60;99.90
22065;DHT22;11197;53.110;8.468;2022-11-23T04:01:14;6.70;99.90
22065;DHT22;11197;53.110;8.468;2022-11-23T04:03:59;6.70;99.90
22065;DHT22;11197;53.110;8.468;2022-11-23T04:06:57;6.70;99.90
22065;DHT22;11197;53.110;8.468;2022-11-23T04:09:27;6.70;99.90
22065;DHT22;11197;53.110;8.468;2022-11-23T04:12:03;6.80;99.90
22065;DHT22;11197;53.110;8.468;2022-11-23T04:14:29;6.80;99.90
22065;DHT22;11197;53.110;8.468;2022-11-23T04:16:55;6.80;99.90
22065;DHT22;11197;53.110;8.468;2022-11-23T04:19:21;6.80;99.90
22065;DHT22;11197;53.110;8.468;2022-11-23T04:21:47;6.80;99.90
22065;DHT22;11197;53.110;8.468;2022-11-23T04:24:13;6.80;99.90
22065;DHT22;11197;53.110;8.468;2022-11-23T04:26:41;6.80;99.90
22065;DHT22;11197;53.110;8.468;2022-11-23T04:29:08;6.90;99.90
22065;DHT22;11197;53.110;8.468;2022-11-23T04:31:37;6.90;99.90
22065;DHT22;11197;53.110;8.468;2022-11-23T04:34:11;6.90;99.90
22065;DHT22;11197;53.110;8.468;2022-11-23T04:36:37;6.90;99.90
22065;DHT22;11197;53.110;8.468;2022-11-23T04:39:04;6.90;99.90
22065;DHT22;11197;53.110;8.468;2022-11-23T04:41:38;6.90;99.90
22065;DHT22;11197;53.110;8.468;2022-11-23T04:44:05;6.90;99.90
22065;DHT22;11197;53.110;8.468;2022-11-23T04:46:32;6.90;99.90
22065;DHT22;11197;53.110;8.468;2022-11-23T04:49:03;6.90;99.90
22065;DHT22;11197;53.110;8.468;2022-11-23T04:51:29;6.90;99.90
22065;DHT22;11197;53.110;8.468;2022-11-23T04:53:55;7.00;99.90
22065;DHT22;11197;53.110;8.468;2022-11-23T04:56:22;7.00;99.90
22065;DHT22;11197;53.110;8.468;2022-11-23T04:58:48;7.10;99.90
22065;DHT22;11197;53.110;8.468;2022-11-23T05:01:13;7.10;99.90
22065;DHT22;11197;53.110;8.468;2022-11-23T05:03:59;7.10;99.90
22065;DHT22;11197;53.110;8.468;2022-11-23T05:06:26;7.00;99.90
22065;DHT22;11197;53.110;8.468;2022-11-23T05:08:53;7.10;99.90
22065;DHT22;11197;53.110;8.468;2022-11-23T05:11:39;7.00;99.90
22065;DHT22;11197;53.110;8.468;2022-11-23T05:14:08;7.10;99.90
22065;DHT22;11197;53.110;8.468;2022-11-23T05:16:34;7.10;99.90
22065;DHT22;11197;53.110;8.468;2022-11-23T05:19:00;7.10;99.90
22065;DHT22;11197;53.110;8.468;2022-11-23T05:21:27;7.10;99.90
22065;DHT22;11197;53.110;8.468;2022-11-23T05:23:53;7.10;99.90
22065;DHT22;11197;53.110;8.468;2022-11-23T05:26:19;7.10;99.90
22065;DHT22;11197;53.110;8.468;2022-11-23T05:28:46;7.20;99.90
22065;DHT22;11197;53.110;8.468;2022-11-23T05:31:14;7.20;99.90
22065;DHT22;11197;53.110;8.468;2022-11-23T05:33:42;7.20;99.90
22065;DHT22;11197;53.110;8.468;2022-11-23T05:36:08;7.20;99.90
22065;DHT22;11197;53.110;8.468;2022-11-23T05:38:40;7.20;99.90
22065;DHT22;11197;53.110;8.468;2022-11-23T05:41:12;7.20;99.90
22065;DHT22;11197;53.110;8.468;2022-11-23T05:43:41;7.20;99.90
22065;DHT22;11197;53.110;8.468;2022-11-23T05:46:09;7.20;99.90
22065;DHT22;11197;53.110;8.468;2022-11-23T05:48:36;7.20;99.90
22065;DHT22;11197;53.110;8.468;2022-11-23T05:51:07;7.20;99.90
22065;DHT22;11197;53.110;8.468;2022-11-23T05:53:37;7.20;99.90
22065;DHT22;11197;53.110;8.468;2022-11-23T05:56:28;7.30;99.90
22065;DHT22;11197;53.110;8.468;2022-11-23T05:59:17;7.30;99.90
22065;DHT22;11197;53.110;8.468;2022-11-23T06:01:48;7.30;99.90
22065;DHT22;11197;53.110;8.468;2022-11-23T06:04:22;7.30;99.90
22065;DHT22;11197;53.110;8.468;2022-11-23T06:06:59;7.30;99.90
22065;DHT22;11197;53.110;8.468;2022-11-23T06:09:54;7.30;99.90
22065;DHT22;11197;53.110;8.468;2022-11-23T06:12:20;7.30;99.90
22065;DHT22;11197;53.110;8.468;2022-11-23T06:14:46;7.40;99.90
22065;DHT22;11197;53.110;8.468;2022-11-23T06:17:15;7.30;99.90
22065;DHT22;11197;53.110;8.468;2022-11-23T06:19:47;7.40;99.90
22065;DHT22;11197;53.110;8.468;2022-11-23T06:22:13;7.40;99.90
22065;DHT22;11197;53.110;8.468;2022-11-23T06:24:56;7.40;99.90
22065;DHT22;11197;53.110;8.468;2022-11-23T06:27:59;7.40;99.90
22065;DHT22;11197;53.110;8.468;2022-11-23T06:30:32;7.40;99.90
22065;DHT22;11197;53.110;8.468;2022-11-23T06:33:04;7.40;99.90
22065;DHT22;11197;53.110;8.468;2022-11-23T06:35:34;7.40;99.90
22065;DHT22;11197;53.110;8.468;2022-11-23T06:37:59;7.40;99.90
22065;DHT22;11197;53.110;8.468;2022-11-23T06:40:27;7.40;99.90
22065;DHT22;11197;53.110;8.468;2022-11-23T06:42:58;7.30;99.90
22065;DHT22;11197;53.110;8.468;2022-11-23T06:45:32;7.30;99.90
22065;DHT22;11197;53.110;8.468;2022-11-23T06:48:01;7.30;99.90
22065;DHT22;11197;53.110;8.468;2022-11-23T06:50:28;7.40;99.90
22065;DHT22;11197;53.110;8.468;2022-11-23T06:52:56;7.40;99.90
22065;DHT22;11197;53.110;8.468;2022-11-23T06:55:32;7.40;99.90
22065;DHT22;11197;53.110;8.468;2022-11-23T06:57:58;7.50;99.90
22065;DHT22;11197;53.110;8.468;2022-11-23T07:00:24;7.50;99.90
22065;DHT22;11197;53.110;8.468;2022-11-23T07:02:51;7.60;99.90
22065;DHT22;11197;53.110;8.468;2022-11-23T07:05:19;7.60;99.90
22065;DHT22;11197;53.110;8.468;2022-11-23T07:07:46;7.70;99.90
22065;DHT22;11197;53.110;8.468;2022-11-23T07:10:19;7.70;99.90
22065;DHT22;11197;53.110;8.468;2022-11-23T07:12:49;7.70;99.90
22065;DHT22;11197;53.110;8.468;2022-11-23T07:15:18;7.80;99.90
22065;DHT22;11197;53.110;8.468;2022-11-23T07:17:45;7.80;99.90
22065;DHT22;11197;53.110;8.468;2022-11-23T07:20:12;7.80;99.90
22065;DHT22;11197;53.110;8.468;2022-11-23T07:22:38;7.80;99.90
22065;DHT22;11197;53.110;8.468;2022-11-23T07:25:05;7.90;99.90
22065;DHT22;11197;53.110;8.468;2022-11-23T07:27:31;7.90;99.90
22065;DHT22;11197;53.110;8.468;2022-11-23T07:29:57;7.90;99.90
22065;DHT22;11197;53.110;8.468;2022-11-23T07:32:23;8.00;99.90
22065;DHT22;11197;53.110;8.468;2022-11-23T07:34:49;8.00;99.90
22065;DHT22;11197;53.110;8.468;2022-11-23T07:37:15;8.00;99.90
22065;DHT22;11197;53.110;8.468;2022-11-23T07:39:43;7.90;99.90
22065;DHT22;11197;53.110;8.468;2022-11-23T07:42:10;7.90;99.90
22065;DHT22;11197;53.110;8.468;2022-11-23T07:44:38;8.00;99.90
22065;DHT22;11197;53.110;8.468;2022-11-23T07:47:07;8.00;99.90
22065;DHT22;11197;53.110;8.468;2022-11-23T07:49:33;8.00;99.90
22065;DHT22;11197;53.110;8.468;2022-11-23T07:51:59;8.00;99.90
22065;DHT22;11197;53.110;8.468;2022-11-23T07:54:25;8.00;99.90
22065;DHT22;11197;53.110;8.468;2022-11-23T07:56:50;8.00;99.90
22065;DHT22;11197;53.110;8.468;2022-11-23T07:59:16;8.10;99.90
22065;DHT22;11197;53.110;8.468;2022-11-23T08:01:42;8.10;99.90
22065;DHT22;11197;53.110;8.468;2022-11-23T08:04:08;8.10;99.90
22065;DHT22;11197;53.110;8.468;2022-11-23T08:06:34;8.10;99.90
22065;DHT22;11197;53.110;8.468;2022-11-23T08:08:59;8.10;99.90
22065;DHT22;11197;53.110;8.468;2022-11-23T08:11:25;8.10;99.90
22065;DHT22;11197;53.110;8.468;2022-11-23T08:13:51;8.10;99.90
22065;DHT22;11197;53.110;8.468;2022-11-23T08:16:17;8.10;99.90
22065;DHT22;11197;53.110;8.468;2022-11-23T08:18:44;8.10;99.90
22065;DHT22;11197;53.110;8.468;2022-11-23T08:21:10;8.20;99.90
22065;DHT22;11197;53.110;8.468;2022-11-23T08:23:36;8.20;99.90
22065;DHT22;11197;53.110;8.468;2022-11-23T08:26:03;8.20;99.90
22065;DHT22;11197;53.110;8.468;2022-11-23T08:28:29;8.20;99.90
22065;DHT22;11197;53.110;8.468;2022-11-23T08:30:55;8.20;99.90
22065;DHT22;11197;53.110;8.468;2022-11-23T08:33:23;8.20;99.90
22065;DHT22;11197;53.110;8.468;2022-11-23T08:35:49;8.20;99.90
22065;DHT22;11197;53.110;8.468;2022-11-23T08:38:15;8.20;99.90
22065;DHT22;11197;53.110;8.468;2022-11-23T08:40:41;8.20;99.90
22065;DHT22;11197;53.110;8.468;2022-11-23T08:43:07;8.30;99.90
22065;DHT22;11197;53.110;8.468;2022-11-23T08:45:33;8.30;99.90
22065;DHT22;11197;53.110;8.468;2022-11-23T08:48:03;8.30;99.90
22065;DHT22;11197;53.110;8.468;2022-11-23T08:50:29;8.30;99.90
22065;DHT22;11197;53.110;8.468;2022-11-23T08:52:57;8.30;99.90
22065;DHT22;11197;53.110;8.468;2022-11-23T08:55:24;8.40;99.90
22065;DHT22;11197;53.110;8.468;2022-11-23T08:57:54;8.40;99.90
22065;DHT22;11197;53.110;8.468;2022-11-23T09:00:20;8.40;99.90
22065;DHT22;11197;53.110;8.468;2022-11-23T09:02:46;8.40;99.90
22065;DHT22;11197;53.110;8.468;2022-11-23T09:05:12;8.40;99.90
22065;DHT22;11197;53.110;8.468;2022-11-23T09:07:38;8.50;99.90
22065;DHT22;11197;53.110;8.468;2022-11-23T09:10:05;8.50;99.90
22065;DHT22;11197;53.110;8.468;2022-11-23T09:12:31;8.50;99.90
22065;DHT22;11197;53.110;8.468;2022-11-23T09:14:57;8.50;99.90
22065;DHT22;11197;53.110;8.468;2022-11-23T09:17:23;8.50;99.90
22065;DHT22;11197;53.110;8.468;2022-11-23T09:19:52;8.60;99.90
22065;DHT22;11197;53.110;8.468;2022-11-23T09:22:17;8.50;99.90
22065;DHT22;11197;53.110;8.468;2022-11-23T09:24:43;8.60;99.90
22065;DHT22;11197;53.110;8.468;2022-11-23T09:27:09;8.60;99.90
22065;DHT22;11197;53.110;8.468;2022-11-23T09:29:35;8.60;99.90
22065;DHT22;11197;53.110;8.468;2022-11-23T09:32:01;8.60;99.90
22065;DHT22;11197;53.110;8.468;2022-11-23T09:34:28;8.60;99.90
22065;DHT22;11197;53.110;8.468;2022-11-23T09:36:55;8.60;99.90
22065;DHT22;11197;53.110;8.468;2022-11-23T09:39:21;8.60;99.90
22065;DHT22;11197;53.110;8.468;2022-11-23T09:52:31;8.80;99.90
22065;DHT22;11197;53.110;8.468;2022-11-23T09:55:20;8.80;99.90
22065;DHT22;11197;53.110;8.468;2022-11-23T09:58:00;8.80;99.90
22065;DHT22;11197;53.110;8.468;2022-11-23T10:00:34;8.80;99.90
22065;DHT22;11197;53.110;8.468;2022-11-23T10:03:02;8.80;99.90
22065;DHT22;11197;53.110;8.468;2022-11-23T10:05:32;8.80;99.90
22065;DHT22;11197;53.110;8.468;2022-11-23T10:10:43;8.90;99.90
22065;DHT22;11197;53.110;8.468;2022-11-23T10:13:33;8.90;99.90
22065;DHT22;11197;53.110;8.468;2022-11-23T10:21:42;8.90;99.90
22065;DHT22;11197;53.110;8.468;2022-11-23T10:24:12;8.90;99.90
22065;DHT22;11197;53.110;8.468;2022-11-23T10:26:41;8.90;99.90
22065;DHT22;11197;53.110;8.468;2022-11-23T10:29:15;8.90;99.90
22065;DHT22;11197;53.110;8.468;2022-11-23T10:31:46;8.90;99.90
22065;DHT22;11197;53.110;8.468;2022-11-23T10:34:15;9.00;99.90
22065;DHT22;11197;53.110;8.468;2022-11-23T10:36:42;9.00;99.90
22065;DHT22;11197;53.110;8.468;2022-11-23T10:39:23;9.00;99.90
22065;DHT22;11197;53.110;8.468;2022-11-23T10:41:55;9.00;99.90
22065;DHT22;11197;53.110;8.468;2022-11-23T10:46:50;9.00;99.90
22065;DHT22;11197;53.110;8.468;2022-11-23T10:54:33;9.10;99.90
22065;DHT22;11197;53.110;8.468;2022-11-23T10:57:02;9.10;99.90
22065;DHT22;11197;53.110;8.468;2022-11-23T10:59:56;9.10;99.90
22065;DHT22;11197;53.110;8.468;2022-11-23T11:02:23;9.20;99.90
22065;DHT22;11197;53.110;8.468;2022-11-23T11:04:50;9.20;99.90
22065;DHT22;11197;53.110;8.468;2022-11-23T11:07:23;9.10;99.90
22065;DHT22;11197;53.110;8.468;2022-11-23T11:09:51;9.20;99.90
22065;DHT22;11197;53.110;8.468;2022-11-23T11:12:17;9.20;99.90
22065;DHT22;11197;53.110;8.468;2022-11-23T11:17:35;9.20;99.90
22065;DHT22;11197;53.110;8.468;2022-11-23T11:22:57;9.20;99.90
22065;DHT22;11197;53.110;8.468;2022-11-23T11:25:34;9.10;99.90
22065;DHT22;11197;53.110;8.468;2022-11-23T11:28:14;9.20;99.90
22065;DHT22;11197;53.110;8.468;2022-11-23T11:33:25;9.20;99.90
22065;DHT22;11197;53.110;8.468;2022-11-23T11:35:55;9.20;99.90
22065;DHT22;11197;53.110;8.468;2022-11-23T11:38:28;9.20;99.90
22065;DHT22;11197;53.110;8.468;2022-11-23T11:40:59;9.20;99.90
22065;DHT22;11197;53.110;8.468;2022-11-23T11:43:33;9.20;99.90
22065;DHT22;11197;53.110;8.468;2022-11-23T11:46:03;9.20;99.90
22065;DHT22;11197;53.110;8.468;2022-11-23T11:48:38;9.20;99.90
22065;DHT22;11197;53.110;8.468;2022-11-23T11:53:50;9.30;99.90
22065;DHT22;11197;53.110;8.468;2022-11-23T11:59:04;9.30;99.90
22065;DHT22;11197;53.110;8.468;2022-11-23T12:01:47;9.30;99.90
22065;DHT22;11197;53.110;8.468;2022-11-23T12:04:44;9.40;99.90
22065;DHT22;11197;53.110;8.468;2022-11-23T12:07:13;9.40;99.90
22065;DHT22;11197;53.110;8.468;2022-11-23T12:09:44;9.40;99.90
22065;DHT22;11197;53.110;8.468;2022-11-23T12:12:16;9.40;99.90
22065;DHT22;11197;53.110;8.468;2022-11-23T12:14:43;9.40;99.90
22065;DHT22;11197;53.110;8.468;2022-11-23T12:20:23;9.50;99.90
22065;DHT22;11197;53.110;8.468;2022-11-23T12:25:40;9.50;99.90
22065;DHT22;11197;53.110;8.468;2022-11-23T12:42:11;9.60;99.90
22065;DHT22;11197;53.110;8.468;2022-11-23T12:44:51;9.70;99.90
22065;DHT22;11197;53.110;8.468;2022-11-23T12:58:11;9.70;99.90
22065;DHT22;11197;53.110;8.468;2022-11-23T13:00:49;9.80;99.90
22065;DHT22;11197;53.110;8.468;2022-11-23T13:03:45;9.80;99.90
22065;DHT22;11197;53.110;8.468;2022-11-23T13:14:26;9.80;99.90
22065;DHT22;11197;53.110;8.468;2022-11-23T13:22:04;9.80;99.90
22065;DHT22;11197;53.110;8.468;2022-11-23T13:24:33;9.80;99.90
22065;DHT22;11197;53.110;8.468;2022-11-23T13:42:55;9.80;99.90
22065;DHT22;11197;53.110;8.468;2022-11-23T13:45:28;9.80;99.90
22065;DHT22;11197;53.110;8.468;2022-11-23T13:53:36;9.70;99.90
22065;DHT22;11197;53.110;8.468;2022-11-23T14:04:39;9.70;99.90
22065;DHT22;11197;53.110;8.468;2022-11-23T14:09:42;9.70;99.90
22065;DHT22;11197;53.110;8.468;2022-11-23T14:14:44;9.70;99.90
22065;DHT22;11197;53.110;8.468;2022-11-23T14:28:31;9.60;99.90
22065;DHT22;11197;53.110;8.468;2022-11-23T14:34:01;9.50;99.90
22065;DHT22;11197;53.110;8.468;2022-11-23T14:42:16;9.40;99.90
22065;DHT22;11197;53.110;8.468;2022-11-23T14:44:43;9.40;99.90
22065;DHT22;11197;53.110;8.468;2022-11-23T14:47:10;9.40;99.90
22065;DHT22;11197;53.110;8.468;2022-11-23T14:49:49;9.40;99.90
22065;DHT22;11197;53.110;8.468;2022-11-23T14:52:28;9.40;99.90
22065;DHT22;11197;53.110;8.468;2022-11-23T14:54:57;9.40;99.90
22065;DHT22;11197;53.110;8.468;2022-11-23T14:57:29;9.40;99.90
22065;DHT22;11197;53.110;8.468;2022-11-23T15:00:00;9.30;99.90
22065;DHT22;11197;53.110;8.468;2022-11-23T15:02:37;9.30;99.90
22065;DHT22;11197;53.110;8.468;2022-11-23T15:05:17;9.20;99.90
22065;DHT22;11197;53.110;8.468;2022-11-23T15:12:55;9.10;99.90
22065;DHT22;11197;53.110;8.468;2022-11-23T15:15:26;9.10;99.90
22065;DHT22;11197;53.110;8.468;2022-11-23T15:20:26;9.10;99.90
22065;DHT22;11197;53.110;8.468;2022-11-23T15:22:53;9.00;99.90
22065;DHT22;11197;53.110;8.468;2022-11-23T15:25:18;9.00;99.90
22065;DHT22;11197;53.110;8.468;2022-11-23T15:27:46;8.90;99.90
22065;DHT22;11197;53.110;8.468;2022-11-23T15:32:54;8.90;99.90
22065;DHT22;11197;53.110;8.468;2022-11-23T15:35:23;8.80;99.90
22065;DHT22;11197;53.110;8.468;2022-11-23T15:37:51;8.80;99.90
22065;DHT22;11197;53.110;8.468;2022-11-23T15:40:17;8.80;99.90
22065;DHT22;11197;53.110;8.468;2022-11-23T15:42:46;9.00;99.90
22065;DHT22;11197;53.110;8.468;2022-11-23T15:45:32;9.70;99.90
22065;DHT22;11197;53.110;8.468;2022-11-23T15:48:04;10.20;99.90
22065;DHT22;11197;53.110;8.468;2022-11-23T15:50:31;10.80;99.90
22065;DHT22;11197;53.110;8.468;2022-11-23T15:52:59;10.90;99.90
22065;DHT22;11197;53.110;8.468;2022-11-23T15:55:25;10.90;99.90
22065;DHT22;11197;53.110;8.468;2022-11-23T15:57:58;10.70;99.90
22065;DHT22;11197;53.110;8.468;2022-11-23T16:00:26;10.40;99.90
22065;DHT22;11197;53.110;8.468;2022-11-23T16:02:52;10.10;99.90
22065;DHT22;11197;53.110;8.468;2022-11-23T16:05:38;9.90;99.90
22065;DHT22;11197;53.110;8.468;2022-11-23T16:08:23;9.60;99.90
22065;DHT22;11197;53.110;8.468;2022-11-23T16:10:53;9.40;99.90
22065;DHT22;11197;53.110;8.468;2022-11-23T16:13:36;9.30;99.90
22065;DHT22;11197;53.110;8.468;2022-11-23T16:16:11;9.10;99.90
22065;DHT22;11197;53.110;8.468;2022-11-23T16:18:46;9.00;99.90
22065;DHT22;11197;53.110;8.468;2022-11-23T16:21:15;8.90;99.90
22065;DHT22;11197;53.110;8.468;2022-11-23T16:23:56;8.70;99.90
22065;DHT22;11197;53.110;8.468;2022-11-23T16:26:31;8.70;99.90
22065;DHT22;11197;53.110;8.468;2022-11-23T16:28:58;8.60;99.90
22065;DHT22;11197;53.110;8.468;2022-11-23T16:31:29;8.50;99.90
22065;DHT22;11197;53.110;8.468;2022-11-23T16:34:00;8.40;99.90
22065;DHT22;11197;53.110;8.468;2022-11-23T16:36:27;8.40;99.90
22065;DHT22;11197;53.110;8.468;2022-11-23T16:38:54;8.30;99.90
22065;DHT22;11197;53.110;8.468;2022-11-23T16:41:20;8.20;99.90
22065;DHT22;11197;53.110;8.468;2022-11-23T16:43:51;8.20;99.90
22065;DHT22;11197;53.110;8.468;2022-11-23T16:46:18;8.20;99.90
22065;DHT22;11197;53.110;8.468;2022-11-23T16:48:45;8.10;99.90
22065;DHT22;11197;53.110;8.468;2022-11-23T16:51:11;8.00;99.90
22065;DHT22;11197;53.110;8.468;2022-11-23T16:53:46;8.00;99.90
22065;DHT22;11197;53.110;8.468;2022-11-23T16:56:22;7.90;99.90
22065;DHT22;11197;53.110;8.468;2022-11-23T16:58:49;7.90;99.90
22065;DHT22;11197;53.110;8.468;2022-11-23T17:01:26;7.90;99.90
22065;DHT22;11197;53.110;8.468;2022-11-23T17:03:54;7.90;99.90
22065;DHT22;11197;53.110;8.468;2022-11-23T17:06:20;7.90;99.90
22065;DHT22;11197;53.110;8.468;2022-11-23T17:08:50;7.90;99.90
22065;DHT22;11197;53.110;8.468;2022-11-23T17:11:20;7.90;99.90
22065;DHT22;11197;53.110;8.468;2022-11-23T17:13:48;7.90;99.90
22065;DHT22;11197;53.110;8.468;2022-11-23T17:16:19;7.90;99.90
22065;DHT22;11197;53.110;8.468;2022-11-23T17:18:45;7.90;99.90
22065;DHT22;11197;53.110;8.468;2022-11-23T17:21:11;7.80;99.90
22065;DHT22;11197;53.110;8.468;2022-11-23T17:23:38;7.80;99.90
22065;DHT22;11197;53.110;8.468;2022-11-23T17:26:08;7.80;99.90
22065;DHT22;11197;53.110;8.468;2022-11-23T17:28:41;7.80;99.90
22065;DHT22;11197;53.110;8.468;2022-11-23T17:31:08;7.80;99.90
22065;DHT22;11197;53.110;8.468;2022-11-23T17:33:34;7.80;99.90
22065;DHT22;11197;53.110;8.468;2022-11-23T17:36:00;7.80;99.90
22065;DHT22;11197;53.110;8.468;2022-11-23T17:38:26;7.70;99.90
22065;DHT22;11197;53.110;8.468;2022-11-23T17:40:52;7.70;99.90
22065;DHT22;11197;53.110;8.468;2022-11-23T17:43:18;7.60;99.90
22065;DHT22;11197;53.110;8.468;2022-11-23T17:45:44;7.60;99.90
22065;DHT22;11197;53.110;8.468;2022-11-23T17:48:11;7.50;99.90
22065;DHT22;11197;53.110;8.468;2022-11-23T17:50:38;7.40;99.90
22065;DHT22;11197;53.110;8.468;2022-11-23T17:53:04;7.40;99.90
22065;DHT22;11197;53.110;8.468;2022-11-23T17:55:30;7.40;99.90
22065;DHT22;11197;53.110;8.468;2022-11-23T17:57:56;7.30;99.90
22065;DHT22;11197;53.110;8.468;2022-11-23T18:00:22;7.30;99.90
22065;DHT22;11197;53.110;8.468;2022-11-23T18:02:48;7.20;99.90
22065;DHT22;11197;53.110;8.468;2022-11-23T18:05:15;7.20;99.90
22065;DHT22;11197;53.110;8.468;2022-11-23T18:07:40;7.20;99.90
22065;DHT22;11197;53.110;8.468;2022-11-23T18:10:08;7.20;99.90
22065;DHT22;11197;53.110;8.468;2022-11-23T18:12:36;7.10;99.90
22065;DHT22;11197;53.110;8.468;2022-11-23T18:15:03;7.10;99.90
22065;DHT22;11197;53.110;8.468;2022-11-23T18:17:29;7.10;99.90
22065;DHT22;11197;53.110;8.468;2022-11-23T18:19:55;7.10;99.90
22065;DHT22;11197;53.110;8.468;2022-11-23T18:22:21;7.10;99.90
22065;DHT22;11197;53.110;8.468;2022-11-23T18:24:47;7.00;99.90
22065;DHT22;11197;53.110;8.468;2022-11-23T18:27:13;7.00;99.90
22065;DHT22;11197;53.110;8.468;2022-11-23T18:29:39;7.00;99.90
22065;DHT22;11197;53.110;8.468;2022-11-23T18:32:05;7.00;99.90
22065;DHT22;11197;53.110;8.468;2022-11-23T18:34:33;6.90;99.90
22065;DHT22;11197;53.110;8.468;2022-11-23T18:36:59;6.90;99.90